createdAt,value
2022-10-17T00:01:26.626Z,97515.94
2022-10-17T00:03:54.741Z,97516.81
2022-10-17T00:06:22.774Z,97514.63
2022-10-17T00:08:50.860Z,97516.81
2022-10-17T00:11:22.742Z,97508.00
2022-10-17T00:13:55.301Z,97512.06
2022-10-17T00:16:29.613Z,97508.19
2022-10-17T00:18:59.994Z,97507.59
2022-10-17T00:21:28.386Z,97500.50
2022-10-17T00:23:59.934Z,97508.06
2022-10-17T00:26:28.454Z,97499.91
2022-10-17T00:28:57.390Z,97497.78
2022-10-17T00:31:28.609Z,97504.59
2022-10-17T00:33:56.631Z,97497.31
2022-10-17T00:36:28.429Z,97498.31
2022-10-17T00:38:59.202Z,97500.00
2022-10-17T00:41:33.888Z,97505.31
2022-10-17T00:44:30.859Z,97507.91
2022-10-17T00:47:04.381Z,97505.09
2022-10-17T00:49:35.486Z,97506.28
2022-10-17T00:52:11.012Z,97511.56
2022-10-17T00:54:45.040Z,97514.00
2022-10-17T00:57:13.102Z,97513.78
2022-10-17T00:59:44.690Z,97516.72
2022-10-17T01:02:20.770Z,97515.47
2022-10-17T01:04:51.323Z,97515.25
2022-10-17T01:07:19.388Z,97516.03
2022-10-17T01:09:48.553Z,97511.97
2022-10-17T01:12:53.323Z,97516.22
2022-10-17T01:15:58.355Z,97513.06
2022-10-17T01:18:25.979Z,97512.16
2022-10-17T01:21:01.525Z,97519.97
2022-10-17T01:23:55.655Z,97515.22
2022-10-17T01:26:31.485Z,97507.13
2022-10-17T01:29:25.561Z,97521.00
2022-10-17T01:32:13.657Z,97520.22
2022-10-17T01:35:25.844Z,97528.59
2022-10-17T01:38:14.252Z,97525.34
2022-10-17T01:40:51.905Z,97534.31
2022-10-17T01:43:24.011Z,97535.28
2022-10-17T01:46:06.109Z,97537.13
2022-10-17T01:48:38.420Z,97535.94
2022-10-17T01:51:23.590Z,97540.06
2022-10-17T01:54:08.161Z,97543.09
2022-10-17T01:56:38.967Z,97544.28
2022-10-17T01:59:18.638Z,97537.97
2022-10-17T02:01:51.692Z,97555.97
2022-10-17T02:04:19.900Z,97562.22
2022-10-17T02:06:47.936Z,97555.97
2022-10-17T02:09:26.893Z,97566.56
2022-10-17T02:12:13.046Z,97555.44
2022-10-17T02:15:11.012Z,97560.13
2022-10-17T02:18:16.656Z,97560.88
2022-10-17T02:20:56.705Z,97562.06
2022-10-17T02:23:33.300Z,97565.09
2022-10-17T02:26:01.279Z,97567.88
2022-10-17T02:28:48.512Z,97563.81
2022-10-17T02:31:32.061Z,97569.50
2022-10-17T02:34:03.983Z,97573.34
2022-10-17T02:36:41.973Z,97573.34
2022-10-17T02:39:16.550Z,97570.78
2022-10-17T02:41:46.890Z,97573.63
2022-10-17T02:44:15.745Z,97578.56
2022-10-17T02:46:49.128Z,97580.03
2022-10-17T02:49:24.218Z,97586.50
2022-10-17T02:52:05.485Z,97583.47
2022-10-17T02:55:05.640Z,97578.50
2022-10-17T02:58:00.684Z,97581.63
2022-10-17T03:00:30.723Z,97582.78
2022-10-17T03:02:58.773Z,97583.47
2022-10-17T03:05:30.214Z,97592.63
2022-10-17T03:08:01.155Z,97591.47
2022-10-17T03:10:29.214Z,97591.78
2022-10-17T03:13:00.155Z,97588.00
2022-10-17T03:15:31.091Z,97591.06
2022-10-17T03:17:59.070Z,97590.25
2022-10-17T03:20:27.202Z,97597.19
2022-10-17T03:22:55.404Z,97599.50
2022-10-17T03:25:23.462Z,97590.34
2022-10-17T03:27:51.472Z,97606.75
2022-10-17T03:30:20.575Z,97596.44
2022-10-17T03:32:51.193Z,97600.25
2022-10-17T03:35:19.343Z,97599.09
2022-10-17T03:37:47.411Z,97604.81
2022-10-17T03:40:17.939Z,97607.41
2022-10-17T03:42:46.005Z,97613.16
2022-10-17T03:45:14.034Z,97614.63
2022-10-17T03:47:42.108Z,97611.91
2022-10-17T03:50:10.427Z,97613.78
2022-10-17T03:52:38.493Z,97607.97
2022-10-17T03:55:07.039Z,97609.44
2022-10-17T03:57:42.163Z,97610.19
2022-10-17T04:00:16.271Z,97607.06
2022-10-17T04:02:44.311Z,97622.06
2022-10-17T04:05:15.211Z,97613.66
2022-10-17T04:07:43.264Z,97618.59
2022-10-17T04:10:11.441Z,97623.03
2022-10-17T04:12:39.737Z,97620.72
2022-10-17T04:15:10.964Z,97622.47
2022-10-17T04:17:38.999Z,97622.84
2022-10-17T04:20:07.544Z,97613.47
2022-10-17T04:22:35.659Z,97624.63
2022-10-17T04:25:03.676Z,97621.03
2022-10-17T04:27:31.874Z,97612.81
2022-10-17T04:29:59.943Z,97610.97
2022-10-17T04:32:31.147Z,97609.81
2022-10-17T04:34:59.340Z,97598.88
2022-10-17T04:37:30.343Z,97605.25
2022-10-17T04:39:59.135Z,97611.25
2022-10-17T04:42:27.493Z,97610.41
2022-10-17T04:44:59.075Z,97612.22
2022-10-17T04:47:27.165Z,97618.69
2022-10-17T04:49:58.114Z,97622.22
2022-10-17T04:52:26.577Z,97624.28
2022-10-17T04:54:54.917Z,97627.22
2022-10-17T04:57:22.941Z,97645.50
2022-10-17T04:59:50.989Z,97648.16
2022-10-17T05:02:21.457Z,97643.25
2022-10-17T05:04:49.450Z,97643.75
2022-10-17T05:07:17.434Z,97641.00
2022-10-17T05:09:45.464Z,97656.50
2022-10-17T05:12:15.886Z,97651.66
2022-10-17T05:14:46.954Z,97658.88
2022-10-17T05:17:15.006Z,97652.31
2022-10-17T05:19:43.091Z,97648.03
2022-10-17T05:22:11.167Z,97651.03
2022-10-17T05:24:39.156Z,97655.22
2022-10-17T05:27:07.157Z,97651.06
2022-10-17T05:29:36.395Z,97655.06
2022-10-17T05:32:04.477Z,97645.75
2022-10-17T05:34:32.461Z,97647.88
2022-10-17T05:37:05.707Z,97652.03
2022-10-17T05:39:36.437Z,97658.97
2022-10-17T05:42:08.109Z,97659.06
2022-10-17T05:44:36.136Z,97661.19
2022-10-17T05:47:04.147Z,97668.53
2022-10-17T05:49:40.092Z,97661.19
2022-10-17T05:52:14.220Z,97651.13
2022-10-17T05:54:42.276Z,97661.03
2022-10-17T05:57:10.342Z,97659.88
2022-10-17T05:59:39.360Z,97657.00
2022-10-17T06:02:10.615Z,97657.69
2022-10-17T06:04:38.630Z,97666.50
2022-10-17T06:07:06.667Z,97663.75
2022-10-17T06:09:37.054Z,97668.31
2022-10-17T06:12:05.271Z,97665.59
2022-10-17T06:14:33.331Z,97682.09
2022-10-17T06:17:04.026Z,97690.63
2022-10-17T06:19:32.106Z,97690.16
2022-10-17T06:22:00.133Z,97695.91
2022-10-17T06:24:30.695Z,97695.25
2022-10-17T06:26:58.719Z,97702.78
2022-10-17T06:29:26.843Z,97695.25
2022-10-17T06:31:54.836Z,97687.59
2022-10-17T06:34:25.443Z,97683.25
2022-10-17T06:39:30.095Z,97691.84
2022-10-17T06:42:01.824Z,97702.31
2022-10-17T06:44:29.838Z,97697.91
2022-10-17T06:47:01.043Z,97699.31
2022-10-17T06:49:32.088Z,97707.50
2022-10-17T06:52:02.970Z,97711.06
2022-10-17T06:54:31.008Z,97718.56
2022-10-17T06:57:01.372Z,97720.22
2022-10-17T06:59:29.416Z,97705.91
2022-10-17T07:01:57.469Z,97717.41
2022-10-17T07:04:28.245Z,97714.38
2022-10-17T07:09:36.895Z,97721.44
2022-10-17T07:12:05.173Z,97717.75
2022-10-17T07:14:33.217Z,97713.22
2022-10-17T07:17:01.398Z,97712.34
2022-10-17T07:19:29.472Z,97719.53
2022-10-17T07:21:59.928Z,97719.53
2022-10-17T07:24:28.064Z,97715.50
2022-10-17T07:26:56.050Z,97711.66
2022-10-17T07:29:24.075Z,97719.06
2022-10-17T07:31:52.062Z,97717.38
2022-10-17T07:34:25.139Z,97712.13
2022-10-17T07:36:53.117Z,97719.91
2022-10-17T07:39:21.124Z,97722.78
2022-10-17T07:41:50.689Z,97726.34
2022-10-17T07:44:18.760Z,97732.81
2022-10-17T07:46:46.825Z,97731.97
2022-10-17T07:49:15.040Z,97731.25
2022-10-17T07:51:43.248Z,97721.53
2022-10-17T07:54:11.323Z,97721.97
2022-10-17T07:56:41.996Z,97721.88
2022-10-17T07:59:12.274Z,97729.94
2022-10-17T08:01:40.301Z,97722.53
2022-10-17T08:04:11.329Z,97733.34
2022-10-17T08:06:39.324Z,97739.75
2022-10-17T08:09:07.398Z,97735.56
2022-10-17T08:11:35.484Z,97739.63
2022-10-17T08:14:05.852Z,97726.94
2022-10-17T08:16:33.893Z,97734.22
2022-10-17T08:19:02.705Z,97734.66
2022-10-17T08:21:31.194Z,97739.31
2022-10-17T08:24:04.400Z,97739.91
2022-10-17T08:26:32.400Z,97733.09
2022-10-17T08:29:00.522Z,97740.63
2022-10-17T08:31:28.798Z,97740.97
2022-10-17T08:33:59.138Z,97726.94
2022-10-17T08:36:30.260Z,97734.91
2022-10-17T08:38:58.266Z,97740.06
2022-10-17T08:41:44.106Z,97743.81
2022-10-17T08:44:39.420Z,97734.63
2022-10-17T08:47:13.820Z,97743.78
2022-10-17T08:49:49.048Z,97750.88
2022-10-17T08:52:29.043Z,97751.75
2022-10-17T08:54:57.279Z,97753.94
2022-10-17T08:57:25.355Z,97746.13
2022-10-17T08:59:56.362Z,97743.81
2022-10-17T09:02:42.647Z,97743.16
2022-10-17T09:05:32.054Z,97738.81
2022-10-17T09:08:14.677Z,97740.59
2022-10-17T09:10:48.500Z,97742.25
2022-10-17T09:13:31.125Z,97739.75
2022-10-17T09:16:25.966Z,97748.38
2022-10-17T09:19:08.166Z,97754.31
2022-10-17T09:22:17.330Z,97757.69
2022-10-17T09:24:50.620Z,97761.53
2022-10-17T09:27:45.171Z,97759.63
2022-10-17T09:30:44.253Z,97767.78
2022-10-17T09:33:34.880Z,97776.97
2022-10-17T09:36:16.848Z,97771.47
2022-10-17T09:39:13.414Z,97776.63
2022-10-17T09:41:48.235Z,97776.03
2022-10-17T09:44:38.657Z,97773.63
2022-10-17T09:47:21.559Z,97779.72
2022-10-17T09:49:50.475Z,97770.28
2022-10-17T09:52:41.211Z,97780.97
2022-10-17T09:55:47.522Z,97778.19
2022-10-17T09:58:15.740Z,97777.59
2022-10-17T10:00:48.569Z,97783.19
2022-10-17T10:03:20.920Z,97781.47
2022-10-17T10:06:07.383Z,97781.41
2022-10-17T10:08:38.820Z,97783.06
2022-10-17T10:11:13.806Z,97781.31
2022-10-17T10:13:43.558Z,97781.97
2022-10-17T10:16:30.693Z,97777.69
2022-10-17T10:18:59.360Z,97769.88
2022-10-17T10:21:28.490Z,97779.94
2022-10-17T10:24:14.946Z,97776.69
2022-10-17T10:26:53.178Z,97778.84
2022-10-17T10:29:27.339Z,97785.06
2022-10-17T10:31:55.464Z,97784.91
2022-10-17T10:34:31.466Z,97786.59
2022-10-17T10:37:06.408Z,97781.22
2022-10-17T10:39:40.379Z,97780.38
2022-10-17T10:42:19.820Z,97775.50
2022-10-17T10:44:48.881Z,97780.06
2022-10-17T10:47:18.599Z,97779.78
2022-10-17T10:49:47.435Z,97782.91
2022-10-17T10:52:41.229Z,97775.88
2022-10-17T10:55:30.523Z,97785.41
2022-10-17T10:58:04.225Z,97769.56
2022-10-17T11:00:38.312Z,97777.50
2022-10-17T11:03:21.899Z,97773.50
2022-10-17T11:06:00.891Z,97784.50
2022-10-17T11:08:39.167Z,97782.09
2022-10-17T11:11:27.250Z,97779.63
2022-10-17T11:14:20.087Z,97775.16
2022-10-17T11:16:48.126Z,97776.22
2022-10-17T11:19:45.163Z,97774.78
2022-10-17T11:22:28.164Z,97780.81
2022-10-17T11:24:59.592Z,97774.84
2022-10-17T11:27:30.394Z,97788.94
2022-10-17T11:29:59.697Z,97783.06
2022-10-17T11:32:46.083Z,97785.09
2022-10-17T11:35:28.922Z,97790.16
2022-10-17T11:38:26.914Z,97794.25
2022-10-17T11:40:58.680Z,97801.19
2022-10-17T11:43:41.549Z,97801.97
2022-10-17T11:46:29.462Z,97791.41
2022-10-17T11:49:20.224Z,97789.25
2022-10-17T11:52:26.949Z,97798.72
2022-10-17T11:55:18.953Z,97799.91
2022-10-17T11:57:49.849Z,97800.88
2022-10-17T12:00:41.667Z,97794.16
2022-10-17T12:03:19.405Z,97798.22
2022-10-17T12:05:50.178Z,97791.53
2022-10-17T12:08:29.130Z,97790.44
2022-10-17T12:11:35.695Z,97786.84
2022-10-17T12:14:35.266Z,97794.56
2022-10-17T12:17:04.796Z,97790.97
2022-10-17T12:19:37.922Z,97799.63
2022-10-17T12:22:26.914Z,97799.63
2022-10-17T12:25:03.466Z,97800.44
2022-10-17T12:27:48.907Z,97802.16
2022-10-17T12:30:28.318Z,97799.97
2022-10-17T12:33:11.138Z,97801.50
2022-10-17T12:35:39.863Z,97801.38
2022-10-17T12:38:19.313Z,97805.41
2022-10-17T12:40:49.017Z,97813.44
2022-10-17T12:43:17.161Z,97815.91
2022-10-17T12:45:50.059Z,97809.50
2022-10-17T12:48:38.710Z,97813.81
2022-10-17T12:51:34.785Z,97815.41
2022-10-17T12:54:09.921Z,97825.31
2022-10-17T12:56:46.637Z,97833.44
2022-10-17T12:59:29.677Z,97821.34
2022-10-17T13:02:06.788Z,97820.88
2022-10-17T13:04:40.554Z,97817.34
2022-10-17T13:07:16.509Z,97822.59
2022-10-17T13:09:45.585Z,97831.16
2022-10-17T13:12:24.318Z,97828.56
2022-10-17T13:14:58.319Z,97831.50
2022-10-17T13:17:31.325Z,97830.28
2022-10-17T13:19:59.883Z,97835.84
2022-10-17T13:22:33.468Z,97838.94
2022-10-17T13:25:10.993Z,97834.13
2022-10-17T13:27:39.016Z,97848.69
2022-10-17T13:30:32.331Z,97835.84
2022-10-17T13:33:01.641Z,97840.47
2022-10-17T13:35:58.892Z,97851.03
2022-10-17T13:38:29.017Z,97844.22
2022-10-17T13:41:05.851Z,97845.00
2022-10-17T13:43:39.269Z,97850.19
2022-10-17T13:46:32.317Z,97851.47
2022-10-17T13:48:59.018Z,97848.09
2022-10-17T13:51:28.416Z,97859.41
2022-10-17T13:53:56.600Z,97858.44
2022-10-17T13:56:29.786Z,97862.47
2022-10-17T13:59:00.186Z,97862.00
2022-10-17T14:01:30.917Z,97863.69
2022-10-17T14:04:19.595Z,97863.88
2022-10-17T14:06:49.630Z,97868.38
2022-10-17T14:09:22.821Z,97870.25
2022-10-17T14:12:01.980Z,97868.06
2022-10-17T14:14:41.473Z,97864.34
2022-10-17T14:17:30.160Z,97871.19
2022-10-17T14:20:40.362Z,97874.75
2022-10-17T14:23:21.103Z,97869.31
2022-10-17T14:25:42.714Z,97877.34
2022-10-17T14:28:13.485Z,97879.84
2022-10-17T14:30:56.128Z,97878.91
2022-10-17T14:33:29.258Z,97893.38
2022-10-17T14:35:59.515Z,97889.16
2022-10-17T14:38:29.323Z,97892.88
2022-10-17T14:44:08.467Z,97889.91
2022-10-17T14:46:37.643Z,97896.91
2022-10-17T14:49:24.548Z,97895.97
2022-10-17T14:52:13.710Z,97899.41
2022-10-17T14:54:50.428Z,97909.00
2022-10-17T14:57:23.853Z,97919.09
2022-10-17T14:59:54.694Z,97919.25
2022-10-17T15:02:29.105Z,97909.50
2022-10-17T15:04:57.483Z,97922.34
2022-10-17T15:07:25.461Z,97920.19
2022-10-17T15:09:54.335Z,97920.16
2022-10-17T15:12:26.320Z,97921.88
2022-10-17T15:14:54.867Z,97922.06
2022-10-17T15:17:30.762Z,97927.63
2022-10-17T15:19:59.406Z,97917.84
2022-10-17T15:22:27.857Z,97922.28
2022-10-17T15:24:56.079Z,97925.44
2022-10-17T15:27:25.603Z,97928.50
2022-10-17T15:29:53.659Z,97928.16
2022-10-17T15:32:21.834Z,97914.91
2022-10-17T15:34:50.385Z,97930.81
2022-10-17T15:37:24.015Z,97929.47
2022-10-17T15:39:55.976Z,97939.72
2022-10-17T15:42:30.400Z,97932.09
2022-10-17T15:45:01.412Z,97935.97
2022-10-17T15:47:32.208Z,97932.28
2022-10-17T15:50:05.801Z,97938.91
2022-10-17T15:52:33.862Z,97935.97
2022-10-17T15:55:04.382Z,97944.09
2022-10-17T15:57:39.464Z,97943.69
2022-10-17T16:00:09.910Z,97944.22
2022-10-17T16:02:39.813Z,97946.22
2022-10-17T16:05:17.416Z,97932.00
2022-10-17T16:07:46.780Z,97940.69
2022-10-17T16:10:18.789Z,97935.53
2022-10-17T16:12:50.452Z,97938.44
2022-10-17T16:15:32.841Z,97941.81
2022-10-17T16:18:05.979Z,97936.69
2022-10-17T16:20:38.607Z,97949.94
2022-10-17T16:23:07.497Z,97943.72
2022-10-17T16:25:38.233Z,97945.38
2022-10-17T16:28:07.747Z,97960.16
2022-10-17T16:30:41.864Z,97962.22
2022-10-17T16:33:09.919Z,97972.72
2022-10-17T16:35:40.804Z,97955.00
2022-10-17T16:38:08.921Z,97956.69
2022-10-17T16:40:39.400Z,97964.94
2022-10-17T16:43:08.229Z,97965.97
2022-10-17T16:45:37.338Z,97961.41
2022-10-17T16:48:07.293Z,97963.50
2022-10-17T16:50:41.204Z,97954.69
2022-10-17T16:53:08.859Z,97964.81
2022-10-17T16:55:36.920Z,97962.63
2022-10-17T16:58:05.764Z,97953.91
2022-10-17T17:00:33.918Z,97961.50
2022-10-17T17:03:03.944Z,97958.59
2022-10-17T17:05:31.973Z,97970.91
2022-10-17T17:07:59.992Z,97963.13
2022-10-17T17:10:28.145Z,97965.38
2022-10-17T17:12:56.199Z,97972.38
2022-10-17T17:15:24.248Z,97972.59
2022-10-17T17:17:55.603Z,97959.44
2022-10-17T17:20:24.023Z,97959.63
2022-10-17T17:22:52.301Z,97964.94
2022-10-17T17:25:20.376Z,97959.09
2022-10-17T17:27:48.547Z,97956.09
2022-10-17T17:30:16.894Z,97961.53
2022-10-17T17:32:44.928Z,97967.06
2022-10-17T17:35:13.557Z,97955.66
2022-10-17T17:37:41.553Z,97954.34
2022-10-17T17:40:10.004Z,97942.31
2022-10-17T17:42:38.031Z,97950.72
2022-10-17T17:45:06.638Z,97957.59
2022-10-17T17:47:34.674Z,97952.59
2022-10-17T17:50:06.315Z,97946.63
2022-10-17T17:52:37.350Z,97938.44
2022-10-17T17:55:11.252Z,97939.22
2022-10-17T17:57:39.686Z,97943.16
2022-10-17T18:00:08.424Z,97940.38
2022-10-17T18:02:42.101Z,97944.63
2022-10-17T18:05:12.455Z,97940.97
2022-10-17T18:07:40.556Z,97932.28
2022-10-17T18:12:45.829Z,97924.94
2022-10-17T18:15:13.985Z,97925.44
2022-10-17T18:17:42.386Z,97922.38
2022-10-17T18:20:13.438Z,97920.50
2022-10-17T18:22:44.389Z,97916.63
2022-10-17T18:25:12.426Z,97902.75
2022-10-17T18:27:40.489Z,97915.25
2022-10-17T18:30:09.132Z,97909.22
2022-10-17T18:32:39.762Z,97903.09
2022-10-17T18:35:10.882Z,97898.50
2022-10-17T18:37:38.983Z,97901.09
2022-10-17T18:40:07.794Z,97897.00
2022-10-17T18:42:35.896Z,97884.78
2022-10-17T18:45:04.029Z,97892.00
2022-10-17T18:47:32.511Z,97884.31
2022-10-17T18:50:00.664Z,97889.13
2022-10-17T18:52:28.753Z,97876.94
2022-10-17T18:54:56.796Z,97888.34
2022-10-17T18:57:26.262Z,97888.72
2022-10-17T18:59:54.505Z,97890.25
2022-10-17T19:02:22.532Z,97877.84
2022-10-17T19:04:50.641Z,97879.97
2022-10-17T19:07:21.449Z,97878.19
2022-10-17T19:09:49.709Z,97888.34
2022-10-17T19:12:20.645Z,97873.28
2022-10-17T19:14:51.147Z,97869.19
2022-10-17T19:17:19.145Z,97863.81
2022-10-17T19:19:50.078Z,97861.81
2022-10-17T19:22:18.220Z,97869.28
2022-10-17T19:24:49.261Z,97862.28
2022-10-17T19:27:20.161Z,97852.56
2022-10-17T19:29:48.172Z,97851.41
2022-10-17T19:32:18.109Z,97853.50
2022-10-17T19:34:48.729Z,97846.78
2022-10-17T19:37:16.764Z,97838.06
2022-10-17T19:39:50.058Z,97838.03
2022-10-17T19:42:21.019Z,97837.63
2022-10-17T19:44:49.107Z,97838.13
2022-10-17T19:47:17.222Z,97830.28
2022-10-17T19:49:49.720Z,97827.00
2022-10-17T19:52:18.168Z,97822.75
2022-10-17T19:54:46.186Z,97818.13
2022-10-17T19:57:14.226Z,97816.06
2022-10-17T19:59:42.232Z,97813.47
2022-10-17T20:02:13.338Z,97801.09
2022-10-17T20:04:49.719Z,97803.84
2022-10-17T20:07:29.519Z,97797.09
2022-10-17T20:09:57.534Z,97804.09
2022-10-17T20:12:25.551Z,97795.94
2022-10-17T20:14:53.615Z,97784.56
2022-10-17T20:17:24.090Z,97784.00
2022-10-17T20:19:52.189Z,97784.13
2022-10-17T20:22:20.362Z,97783.72
2022-10-17T20:24:48.595Z,97786.84
2022-10-17T20:27:19.025Z,97778.13
2022-10-17T20:29:47.309Z,97771.63
2022-10-17T20:32:15.394Z,97774.63
2022-10-17T20:34:43.445Z,97771.91
2022-10-17T20:37:11.467Z,97768.72
2022-10-17T20:39:40.221Z,97764.94
2022-10-17T20:42:08.280Z,97767.25
2022-10-17T20:44:36.351Z,97766.03
2022-10-17T20:47:16.023Z,97765.25
2022-10-17T20:49:44.553Z,97752.31
2022-10-17T20:52:13.174Z,97753.22
2022-10-17T20:54:42.212Z,97738.25
2022-10-17T20:57:10.319Z,97743.91
2022-10-17T20:59:41.297Z,97741.59
2022-10-17T21:02:13.845Z,97724.50
2022-10-17T21:04:46.251Z,97726.69
2022-10-17T21:07:16.949Z,97729.75
2022-10-17T21:09:45.006Z,97726.94
2022-10-17T21:12:18.179Z,97711.97
2022-10-17T21:14:56.912Z,97709.63
2022-10-17T21:17:25.119Z,97705.78
2022-10-17T21:19:53.140Z,97704.44
2022-10-17T21:22:26.458Z,97699.81
2022-10-17T21:24:54.687Z,97692.81
2022-10-17T21:27:22.678Z,97701.88
2022-10-17T21:29:50.717Z,97689.38
2022-10-17T21:32:31.993Z,97687.25
2022-10-17T21:35:07.575Z,97685.72
2022-10-17T21:37:35.698Z,97683.66
2022-10-17T21:40:03.853Z,97676.59
2022-10-17T21:42:34.840Z,97678.03
2022-10-17T21:45:10.779Z,97669.38
2022-10-17T21:47:55.016Z,97668.22
2022-10-17T21:50:29.241Z,97663.66
2022-10-17T21:52:59.340Z,97655.84
2022-10-17T21:55:27.407Z,97661.97
2022-10-17T21:57:55.452Z,97654.00
2022-10-17T22:00:23.613Z,97658.06
2022-10-17T22:02:51.701Z,97662.00
2022-10-17T22:05:19.677Z,97644.88
2022-10-17T22:07:48.264Z,97650.97
2022-10-17T22:10:16.402Z,97670.53
2022-10-17T22:12:44.451Z,97840.50
2022-10-17T22:17:42.904Z,97813.91
2022-10-17T22:20:11.019Z,97808.91
2022-10-17T22:22:39.006Z,97745.41
2022-10-17T22:25:10.755Z,97649.88
2022-10-17T22:27:38.844Z,97721.34
2022-10-17T22:30:07.905Z,97753.34
2022-10-17T22:32:38.245Z,97764.69
2022-10-17T22:35:06.762Z,97759.50
2022-10-17T22:37:34.912Z,97726.09
2022-10-17T22:40:03.294Z,97637.88
2022-10-17T22:42:33.990Z,97637.59
2022-10-17T22:45:04.494Z,97623.66
2022-10-17T22:47:32.854Z,97621.91
2022-10-17T22:50:01.149Z,97616.00
2022-10-17T22:52:29.383Z,97622.13
2022-10-17T22:55:00.030Z,97621.81
2022-10-17T22:57:30.417Z,97621.72
2022-10-17T22:59:58.420Z,97626.53
2022-10-17T23:02:26.471Z,97628.53
2022-10-17T23:04:57.405Z,97622.00
2022-10-17T23:07:25.790Z,97622.19
2022-10-17T23:09:53.997Z,97618.78
2022-10-17T23:12:22.274Z,97621.75
2022-10-17T23:14:53.179Z,97618.38
2022-10-17T23:17:21.196Z,97624.25
2022-10-17T23:19:50.930Z,97656.75
2022-10-17T23:22:21.005Z,97655.19
2022-10-17T23:24:49.129Z,97661.69
2022-10-17T23:27:17.234Z,97654.84
2022-10-17T23:29:45.279Z,97655.16
2022-10-17T23:32:13.347Z,97650.69
2022-10-17T23:34:43.714Z,97638.31
2022-10-17T23:37:12.107Z,97608.78
2022-10-17T23:39:43.085Z,97599.44
2022-10-17T23:42:11.114Z,97603.69
2022-10-17T23:44:39.152Z,97594.94
2022-10-17T23:47:07.291Z,97579.38
2022-10-17T23:49:35.272Z,97602.59
2022-10-17T23:52:06.142Z,97599.25
2022-10-17T23:54:34.276Z,97594.84
2022-10-17T23:57:02.360Z,97607.47
2022-10-17T23:59:30.454Z,97600.09
